ADDS METAR Data INFO
IDs: Format: Raw Decoded Include TAF

Data at: 0310 UTC 17 Jan 2018

KDED 170255Z AUTO 02003KT 10SM CLR 10/09 A3031 RMK AO2
KDED 170235Z AUTO 00000KT 10SM CLR 09/09 A3031 RMK AO2
KDED 170215Z AUTO 00000KT 10SM CLR 10/09 A3031 RMK AO2
KDED 170155Z AUTO 34003KT 10SM CLR 10/10 A3031 RMK AO2
KDED 170135Z AUTO 00000KT 10SM CLR 10/10 A3031 RMK AO2
KDED 170115Z AUTO 36003KT 10SM CLR 11/09 A3031 RMK AO2
KDED 170055Z AUTO 00000KT 10SM CLR 11/10 A3030 RMK AO2
KDED 170035Z AUTO 05004KT 10SM CLR 12/10 A3030 RMK AO2
KDED 170015Z AUTO 05004KT 10SM CLR 12/10 A3029 RMK AO2
KDED 162355Z AUTO 03005KT 10SM CLR 13/10 A3029 RMK AO2
KDED 162335Z AUTO 03005KT 10SM CLR 13/10 A3030 RMK AO2
KDED 162315Z AUTO 03005KT 10SM CLR 14/10 A3031 RMK AO2
KDED 162255Z AUTO 03006KT 10SM CLR 14/11 A3031 RMK AO2
KDED 162235Z AUTO 03006KT 10SM CLR 15/11 A3032 RMK AO2
KDED 162215Z AUTO 03009KT 10SM CLR 16/11 A3030 RMK AO2
KDED 162155Z AUTO 02009KT 10SM CLR 17/11 A3030 RMK AO2
KDED 162135Z AUTO 02008KT 10SM CLR 18/11 A3030 RMK AO2
KDED 162115Z AUTO 02007KT 10SM CLR 18/11 A3030 RMK AO2
KDED 162055Z AUTO 02008KT 10SM CLR 18/11 A3031 RMK AO2
KDED 162035Z AUTO 05009KT 10SM CLR 19/11 A3030 RMK AO2
KDED 162015Z AUTO 04010KT 10SM SCT036 19/11 A3030 RMK AO2
KDED 161955Z AUTO 03010KT 10SM SCT036 SCT044 19/11 A3030 RMK AO2
KDED 161935Z AUTO 03009KT 10SM SCT036 SCT044 19/11 A3031 RMK AO2
KDED 161915Z AUTO 06008KT 10SM SCT036 19/11 A3031 RMK AO2
KDED 161855Z AUTO 01008KT 10SM SCT036 19/11 A3032 RMK AO2
KDED 161835Z AUTO 03008KT 10SM SCT036 19/11 A3032 RMK AO2
KDED 161815Z AUTO 05005KT 10SM SCT036 19/10 A3033 RMK AO2
KDED 161755Z AUTO 04004KT 10SM SCT036 19/11 A3034 RMK AO2
KDED 161735Z AUTO 03005KT 10SM CLR 19/11 A3035 RMK AO2
KDED 161715Z AUTO 08008KT 10SM CLR 19/11 A3036 RMK AO2
KDED 161655Z AUTO 04009KT 10SM CLR 19/11 A3037 RMK AO2
KDED 161635Z AUTO 03009KT 350V060 10SM CLR 18/11 A3038 RMK AO2
KDED 161615Z AUTO 04006KT 10SM CLR 17/11 A3039 RMK AO2
KDED 161555Z AUTO 02008KT 10SM CLR 17/11 A3039 RMK AO2
KDED 161535Z AUTO 01009KT 10SM CLR 15/10 A3040 RMK AO2
KDED 161515Z AUTO 36008KT 10SM CLR 15/10 A3040 RMK AO2
KDED 161455Z AUTO 36008KT 10SM CLR 14/10 A3040 RMK AO2
KDED 161435Z AUTO 01009KT 10SM CLR 13/09 A3040 RMK AO2
KDED 161415Z AUTO 02007KT 10SM CLR 12/09 A3039 RMK AO2
KDED 161355Z AUTO 36007KT 10SM CLR 11/09 A3038 RMK AO2
KDED 161335Z AUTO 36009KT 10SM CLR 10/08 A3038 RMK AO2
KDED 161315Z AUTO 34007KT 10SM CLR 09/07 A3038 RMK AO2
KDED 161255Z AUTO 35004KT 10SM CLR 08/07 A3037 RMK AO2
KDED 161235Z AUTO 32005KT 10SM CLR 08/07 A3037 RMK AO2
KDED 161215Z AUTO 34005KT 10SM CLR 08/07 A3037 RMK AO2
KDED 161155Z AUTO 35007KT 10SM CLR 08/07 A3036 RMK AO2
KDED 161135Z AUTO 34006KT 10SM CLR 08/07 A3036 RMK AO2
KDED 161115Z AUTO 35006KT 10SM CLR 08/07 A3036 RMK AO2
KDED 161055Z AUTO 35006KT 10SM CLR 08/07 A3035 RMK AO2
KDED 161035Z AUTO 33007KT 10SM CLR 07/07 A3035 RMK AO2
KDED 161015Z AUTO 34005KT 10SM CLR 07/06 A3034 RMK AO2
KDED 160955Z AUTO 33005KT 10SM CLR 07/06 A3034 RMK AO2
KDED 160935Z AUTO 32004KT 10SM CLR 06/06 A3034 RMK AO2
KDED 160915Z AUTO 33003KT 10SM CLR 07/06 A3034 RMK AO2
KDED 160855Z AUTO 33004KT 10SM CLR 06/06 A3034 RMK AO2
KDED 160835Z AUTO 33004KT 10SM CLR 07/06 A3034 RMK AO2
KDED 160815Z AUTO 33004KT 10SM CLR 07/06 A3034 RMK AO2
KDED 160755Z AUTO 34005KT 10SM CLR 07/06 A3034 RMK AO2
KDED 160735Z AUTO 34006KT 10SM CLR 07/06 A3034 RMK AO2
KDED 160715Z AUTO 34005KT 10SM CLR 07/06 A3034 RMK AO2
KDED 160655Z AUTO 34005KT 10SM CLR 06/05 A3034 RMK AO2
KDED 160635Z AUTO 34004KT 10SM CLR 06/06 A3035 RMK AO2
KDED 160615Z AUTO 34005KT 10SM CLR 07/06 A3036 RMK AO2
KDED 160555Z AUTO 34005KT 10SM CLR 06/05 A3037 RMK AO2
KDED 160535Z AUTO 34005KT 10SM CLR 06/05 A3037 RMK AO2
KDED 160515Z AUTO 34005KT 10SM CLR 06/05 A3037 RMK AO2
KDED 160455Z AUTO 34005KT 10SM CLR 06/05 A3038 RMK AO2
KDED 160435Z AUTO 34005KT 10SM CLR 06/05 A3038 RMK AO2
KDED 160415Z AUTO 34005KT 10SM CLR 07/05 A3039 RMK AO2
KDED 160355Z AUTO 34006KT 10SM CLR 07/05 A3039 RMK AO2
KDED 160335Z AUTO 36006KT 10SM CLR 06/05 A3039 RMK AO2
KDED 160315Z AUTO 35006KT 10SM CLR 06/05 A3039 RMK AO2
KDED 160255Z AUTO 35006KT 10SM CLR 06/05 A3039 RMK AO2
KDED 160235Z AUTO 35006KT 10SM CLR 06/04 A3038 RMK AO2
KDED 160215Z AUTO 35008KT 10SM CLR 07/05 A3039 RMK AO2
KDED 160155Z AUTO 34006KT 10SM CLR 07/04 A3039 RMK AO2
KDED 160135Z AUTO 34007KT 10SM CLR 07/04 A3039 RMK AO2
KDED 160115Z AUTO 34007KT 10SM CLR 07/04 A3039 RMK AO2
KDED 160055Z AUTO 34007KT 10SM CLR 07/04 A3039 RMK AO2
KDED 160035Z AUTO 35008KT 10SM CLR 07/05 A3038 RMK AO2
KDED 160015Z AUTO 36007KT 10SM CLR 08/04 A3038 RMK AO2
KDED 152355Z AUTO 36008KT 10SM CLR 08/04 A3038 RMK AO2
KDED 152335Z AUTO 36008KT 10SM CLR 08/04 A3038 RMK AO2
KDED 152315Z AUTO 01006KT 10SM CLR 09/04 A3037 RMK AO2
KDED 152255Z AUTO 03007KT 10SM CLR 09/04 A3037 RMK AO2
KDED 152235Z AUTO 01011G15KT 10SM CLR 10/04 A3036 RMK AO2
KDED 152215Z AUTO 02009KT 10SM CLR 11/03 A3036 RMK AO2
KDED 152155Z AUTO 03009KT 10SM CLR 11/03 A3035 RMK AO2
KDED 152135Z AUTO 02011KT 10SM CLR 12/03 A3035 RMK AO2
KDED 152115Z AUTO 02010KT 10SM CLR 12/02 A3035 RMK AO2
KDED 152055Z AUTO 04009KT 10SM CLR 13/03 A3034 RMK AO2
KDED 152035Z AUTO 01012G17KT 10SM CLR 13/03 A3034 RMK AO2
KDED 152015Z AUTO 02010KT 10SM CLR 13/04 A3033 RMK AO2
KDED 151955Z AUTO 04012KT 10SM CLR 14/04 A3033 RMK AO2
KDED 151935Z AUTO 01013G18KT 10SM CLR 14/03 A3033 RMK AO2
KDED 151915Z AUTO 03013G17KT 10SM CLR 15/04 A3034 RMK AO2
KDED 151855Z AUTO 02013G18KT 10SM CLR 14/04 A3034 RMK AO2
KDED 151835Z AUTO 01012KT 10SM CLR 15/05 A3034 RMK AO2
KDED 151815Z AUTO 04011KT 010V070 10SM CLR 14/04 A3036 RMK AO2
KDED 151755Z AUTO 02013KT 10SM CLR 14/04 A3037 RMK AO2
KDED 151735Z AUTO 02012G15KT 10SM CLR 14/05 A3038 RMK AO2
KDED 151715Z AUTO 01011KT 10SM CLR 14/04 A3039 RMK AO2
KDED 151655Z AUTO 03010KT 10SM CLR 15/04 A3040 RMK AO2
KDED 151635Z AUTO 02012KT 360V060 10SM CLR 14/04 A3040 RMK AO2
KDED 151615Z AUTO 03014KT 10SM CLR 14/05 A3040 RMK AO2
KDED 151555Z AUTO 02012G19KT 10SM CLR 14/04 A3041 RMK AO2
KDED 151535Z AUTO 01010KT 10SM CLR 13/07 A3042 RMK AO2
KDED 151515Z AUTO 02011KT 10SM CLR 12/07 A3042 RMK AO2